createdAt,value
2018-05-27T00:00:51.235Z,100508
2018-05-27T00:01:56.670Z,100505
2018-05-27T00:03:02.110Z,100505
2018-05-27T00:04:07.385Z,100502
2018-05-27T00:05:12.835Z,100502
2018-05-27T00:06:17.714Z,100502
2018-05-27T00:07:23.110Z,100499
2018-05-27T00:08:28.260Z,100499
2018-05-27T00:09:33.771Z,100496
2018-05-27T00:10:38.924Z,100502
2018-05-27T00:11:44.363Z,100496
2018-05-27T00:12:49.485Z,100499
2018-05-27T00:13:54.979Z,100493
2018-05-27T00:15:00.211Z,100487
2018-05-27T00:16:05.719Z,100487
2018-05-27T00:17:10.310Z,100479
2018-05-27T00:18:15.750Z,100490
2018-05-27T00:19:21.551Z,100485
2018-05-27T00:20:26.986Z,100482
2018-05-27T00:21:32.306Z,100474
2018-05-27T00:22:37.190Z,100487
2018-05-27T00:23:42.345Z,100484
2018-05-27T00:24:47.472Z,100482
2018-05-27T00:25:52.330Z,100484
2018-05-27T00:26:57.216Z,100474
2018-05-27T00:28:02.725Z,100479
2018-05-27T00:29:07.585Z,100479
2018-05-27T00:30:13.019Z,100482
2018-05-27T00:31:18.416Z,100476
2018-05-27T00:32:23.021Z,100474
2018-05-27T00:33:28.338Z,100474
2018-05-27T00:34:33.206Z,100471
2018-05-27T00:35:38.375Z,100471
2018-05-27T00:36:43.769Z,100474
2018-05-27T00:37:48.362Z,100474
2018-05-27T00:38:53.520Z,100468
2018-05-27T00:39:58.550Z,100462
2018-05-27T00:41:02.874Z,100471
2018-05-27T00:42:07.755Z,100471
2018-05-27T00:43:13.148Z,100462
2018-05-27T00:44:18.586Z,100468
2018-05-27T00:45:24.023Z,100471
2018-05-27T00:46:44.364Z,100456
2018-05-27T00:47:49.523Z,100474
2018-05-27T00:48:55.303Z,100474
2018-05-27T00:50:00.556Z,100468
2018-05-27T00:51:05.438Z,100471
2018-05-27T00:52:10.845Z,100471
2018-05-27T00:53:15.453Z,100471
2018-05-27T00:54:20.930Z,100471
2018-05-27T00:55:41.369Z,100471
2018-05-27T00:56:46.533Z,100476
2018-05-27T00:57:52.379Z,100479
2018-05-27T00:58:57.812Z,100471
2018-05-27T01:00:02.404Z,100474
2018-05-27T01:01:07.233Z,100476
2018-05-27T01:02:12.690Z,100471
2018-05-27T01:03:17.834Z,100474
2018-05-27T01:04:23.533Z,100462
2018-05-27T01:05:28.402Z,100465
2018-05-27T01:06:33.715Z,100462
2018-05-27T01:07:39.191Z,100465
2018-05-27T01:08:44.346Z,100462
2018-05-27T01:09:49.452Z,100450
2018-05-27T01:10:54.342Z,100459
2018-05-27T01:11:59.228Z,100459
2018-05-27T01:13:04.915Z,100450
2018-05-27T01:14:10.070Z,100450
2018-05-27T01:15:14.649Z,100459
2018-05-27T01:16:20.262Z,100453
2018-05-27T01:17:25.707Z,100450
2018-05-27T01:18:31.309Z,100456
2018-05-27T01:19:36.764Z,100456
2018-05-27T01:20:41.945Z,100459
2018-05-27T01:21:47.741Z,100459
2018-05-27T01:22:52.925Z,100456
2018-05-27T01:23:58.352Z,100453
2018-05-27T01:25:03.470Z,100447
2018-05-27T01:26:08.353Z,100456
2018-05-27T01:27:13.517Z,100447
2018-05-27T01:28:19.016Z,100450
2018-05-27T01:29:24.452Z,100439
2018-05-27T01:30:29.904Z,100445
2018-05-27T01:31:35.076Z,100436
2018-05-27T01:32:40.509Z,100445
2018-05-27T01:33:46.344Z,100439
2018-05-27T01:34:51.499Z,100436
2018-05-27T01:35:56.933Z,100430
2018-05-27T01:37:01.774Z,100439
2018-05-27T01:38:06.952Z,100447
2018-05-27T01:39:12.114Z,100445
2018-05-27T01:40:17.929Z,100433
2018-05-27T01:41:22.797Z,100421
2018-05-27T01:42:28.068Z,100424
2018-05-27T01:43:33.506Z,100427
2018-05-27T01:44:38.367Z,100436
2018-05-27T01:45:43.401Z,100427
2018-05-27T01:46:47.983Z,100427
2018-05-27T01:47:53.143Z,100427
2018-05-27T01:48:58.645Z,100427
2018-05-27T01:50:03.806Z,100424
2018-05-27T01:51:08.664Z,100424
2018-05-27T01:52:14.075Z,100424
2018-05-27T01:53:19.524Z,100424
2018-05-27T01:54:24.993Z,100433
2018-05-27T01:55:29.901Z,100436
2018-05-27T01:56:35.065Z,100433
2018-05-27T01:57:40.658Z,100418
2018-05-27T01:58:45.549Z,100418
2018-05-27T01:59:50.698Z,100424
2018-05-27T02:00:56.623Z,100424
2018-05-27T02:02:02.087Z,100427
2018-05-27T02:03:07.239Z,100421
2018-05-27T02:04:12.739Z,100421
2018-05-27T02:05:17.605Z,100424
2018-05-27T02:06:22.759Z,100412
2018-05-27T02:07:28.521Z,100418
2018-05-27T02:08:33.984Z,100412
2018-05-27T02:09:39.391Z,100421
2018-05-27T02:10:44.275Z,100410
2018-05-27T02:11:49.713Z,100418
2018-05-27T02:12:55.113Z,100413
2018-05-27T02:13:59.999Z,100415
2018-05-27T02:15:05.167Z,100421
2018-05-27T02:16:10.849Z,100418
2018-05-27T02:17:16.004Z,100415
2018-05-27T02:18:20.871Z,100427
2018-05-27T02:19:26.567Z,100415
2018-05-27T02:20:31.448Z,100415
2018-05-27T02:21:36.946Z,100415
2018-05-27T02:22:42.293Z,100407
2018-05-27T02:23:47.482Z,100418
2018-05-27T02:24:52.990Z,100421
2018-05-27T02:25:58.436Z,100415
2018-05-27T02:27:03.313Z,100418
2018-05-27T02:28:08.433Z,100418
2018-05-27T02:29:13.590Z,100410
2018-05-27T02:30:18.462Z,100415
2018-05-27T02:31:24.281Z,100418
2018-05-27T02:32:29.154Z,100421
2018-05-27T02:33:34.987Z,100427
2018-05-27T02:34:40.419Z,100424
2018-05-27T02:35:45.575Z,100415
2018-05-27T02:36:50.986Z,100418
2018-05-27T02:37:56.145Z,100415
2018-05-27T02:39:01.005Z,100415
2018-05-27T02:40:06.062Z,100415
2018-05-27T02:41:10.931Z,100421
2018-05-27T02:42:16.089Z,100410
2018-05-27T02:43:21.925Z,100412
2018-05-27T02:44:27.363Z,100412
2018-05-27T02:45:32.910Z,100418
2018-05-27T02:46:37.783Z,100415
2018-05-27T02:47:42.939Z,100407
2018-05-27T02:48:48.623Z,100412
2018-05-27T02:49:54.053Z,100407
2018-05-27T02:50:59.496Z,100415
2018-05-27T02:52:04.728Z,100412
2018-05-27T02:53:09.867Z,100412
2018-05-27T02:54:15.039Z,100404
2018-05-27T02:55:20.723Z,100412
2018-05-27T02:56:25.869Z,100404
2018-05-27T02:57:31.583Z,100401
2018-05-27T02:58:36.729Z,100395
2018-05-27T02:59:41.905Z,100404
2018-05-27T03:00:46.913Z,100389
2018-05-27T03:01:52.354Z,100395
2018-05-27T03:02:57.792Z,100392
2018-05-27T03:04:03.354Z,100401
2018-05-27T03:05:08.509Z,100392
2018-05-27T03:06:13.960Z,100404
2018-05-27T03:07:19.647Z,100401
2018-05-27T03:08:24.244Z,100407
2018-05-27T03:09:29.763Z,100404
2018-05-27T03:10:34.674Z,100410
2018-05-27T03:11:39.851Z,100412
2018-05-27T03:12:45.553Z,100404
2018-05-27T03:13:50.152Z,100410
2018-05-27T03:14:55.600Z,100412
2018-05-27T03:16:01.281Z,100421
2018-05-27T03:17:06.426Z,100412
2018-05-27T03:18:11.589Z,100415
2018-05-27T03:19:17.326Z,100418
2018-05-27T03:20:22.758Z,100418
2018-05-27T03:21:28.434Z,100412
2018-05-27T03:22:33.588Z,100415
2018-05-27T03:23:39.022Z,100409
2018-05-27T03:24:44.504Z,100415
2018-05-27T03:25:49.668Z,100415
2018-05-27T03:26:55.121Z,100418
2018-05-27T03:28:00.520Z,100412
2018-05-27T03:29:05.708Z,100409
2018-05-27T03:30:10.872Z,100407
2018-05-27T03:31:16.380Z,100409
2018-05-27T03:32:21.547Z,100409
2018-05-27T03:33:27.056Z,100404
2018-05-27T03:34:32.226Z,100409
2018-05-27T03:35:37.378Z,100415
2018-05-27T03:36:42.518Z,100415
2018-05-27T03:37:47.387Z,100418
2018-05-27T03:38:52.545Z,100409
2018-05-27T03:39:58.275Z,100415
2018-05-27T03:41:03.151Z,100421
2018-05-27T03:42:08.591Z,100418
2018-05-27T03:43:14.172Z,100415
2018-05-27T03:44:19.337Z,100415
2018-05-27T03:45:24.498Z,100433
2018-05-27T03:46:44.788Z,100430
2018-05-27T03:47:49.942Z,100433
2018-05-27T03:48:55.734Z,100424
2018-05-27T03:50:00.887Z,100433
2018-05-27T03:51:05.772Z,100427
2018-05-27T03:52:11.182Z,100421
2018-05-27T03:53:16.372Z,100412
2018-05-27T03:54:21.505Z,100421
2018-05-27T03:55:26.714Z,100433
2018-05-27T03:56:31.895Z,100424
2018-05-27T03:57:37.232Z,100418
2018-05-27T03:58:42.382Z,100415
2018-05-27T03:59:47.534Z,100418
2018-05-27T04:00:53.091Z,100427
2018-05-27T04:01:58.521Z,100427
2018-05-27T04:03:03.395Z,100424
2018-05-27T04:04:09.001Z,100427
2018-05-27T04:05:14.148Z,100418
2018-05-27T04:06:19.306Z,100421
2018-05-27T04:07:24.710Z,100424
2018-05-27T04:08:30.142Z,100418
2018-05-27T04:09:35.825Z,100433
2018-05-27T04:10:40.974Z,100430
2018-05-27T04:11:45.878Z,100433
2018-05-27T04:12:51.558Z,100424
2018-05-27T04:13:57.011Z,100430
2018-05-27T04:15:02.181Z,100427
2018-05-27T04:16:07.861Z,100421
2018-05-27T04:17:13.291Z,100427
2018-05-27T04:18:18.727Z,100421
2018-05-27T04:19:24.416Z,100424
2018-05-27T04:20:29.573Z,100418
2018-05-27T04:21:35.179Z,100433
2018-05-27T04:22:40.334Z,100418
2018-05-27T04:23:45.201Z,100415
2018-05-27T04:24:50.754Z,100421
2018-05-27T04:25:55.920Z,100421
2018-05-27T04:27:00.787Z,100415
2018-05-27T04:28:06.361Z,100427
2018-05-27T04:29:11.548Z,100409
2018-05-27T04:30:16.988Z,100421
2018-05-27T04:31:22.013Z,100424
2018-05-27T04:32:27.184Z,100424
2018-05-27T04:33:32.468Z,100409
2018-05-27T04:34:37.626Z,100415
2018-05-27T04:35:42.527Z,100418
2018-05-27T04:36:47.923Z,100418
2018-05-27T04:37:53.076Z,100406
2018-05-27T04:38:57.957Z,100409
2018-05-27T04:40:02.973Z,100409
2018-05-27T04:41:07.579Z,100415
2018-05-27T04:42:12.444Z,100415
2018-05-27T04:43:17.874Z,100404
2018-05-27T04:44:22.479Z,100409
2018-05-27T04:45:27.960Z,100407
2018-05-27T04:46:33.412Z,100407
2018-05-27T04:47:38.283Z,100409
2018-05-27T04:48:43.686Z,100404
2018-05-27T04:49:48.586Z,100409
2018-05-27T04:50:54.022Z,100401
2018-05-27T04:51:59.799Z,100395
2018-05-27T04:53:05.234Z,100401
2018-05-27T04:54:10.676Z,100392
2018-05-27T04:55:16.380Z,100398
2018-05-27T04:56:21.824Z,100389
2018-05-27T04:57:27.336Z,100395
2018-05-27T04:58:32.203Z,100395
2018-05-27T04:59:36.840Z,100401
2018-05-27T05:00:42.107Z,100398
2018-05-27T05:01:47.540Z,100401
2018-05-27T05:02:52.712Z,100392
2018-05-27T05:03:57.821Z,100407
2018-05-27T05:05:02.716Z,100409
2018-05-27T05:06:07.871Z,100409
2018-05-27T05:07:13.267Z,100398
2018-05-27T05:08:18.435Z,100409
2018-05-27T05:09:23.597Z,100412
2018-05-27T05:10:29.948Z,100407
2018-05-27T05:11:35.120Z,100404
2018-05-27T05:12:40.674Z,100409
2018-05-27T05:13:46.128Z,100409
2018-05-27T05:14:51.392Z,100409
2018-05-27T05:15:57.314Z,100404
2018-05-27T05:17:02.172Z,100421
2018-05-27T05:18:06.780Z,100409
2018-05-27T05:19:12.771Z,100415
2018-05-27T05:20:18.203Z,100409
2018-05-27T05:21:23.637Z,100421
2018-05-27T05:22:43.859Z,100424
2018-05-27T05:23:49.017Z,100415
2018-05-27T05:24:54.613Z,100407
2018-05-27T05:26:00.056Z,100421
2018-05-27T05:27:04.958Z,100412
2018-05-27T05:28:10.397Z,100421
2018-05-27T05:29:15.260Z,100418
2018-05-27T05:30:20.418Z,100415
2018-05-27T05:31:25.812Z,100421
2018-05-27T05:32:30.713Z,100418
2018-05-27T05:33:35.872Z,100424
2018-05-27T05:34:41.302Z,100427
2018-05-27T05:35:46.752Z,100424
2018-05-27T05:36:52.001Z,100421
2018-05-27T05:37:57.443Z,100418
2018-05-27T05:39:02.588Z,100421
2018-05-27T05:40:08.287Z,100427
2018-05-27T05:41:13.434Z,100424
2018-05-27T05:42:18.876Z,100421
2018-05-27T05:43:24.287Z,100436
2018-05-27T05:44:29.181Z,100421
2018-05-27T05:45:33.845Z,100433
2018-05-27T05:46:39.019Z,100430
2018-05-27T05:47:44.166Z,100439
2018-05-27T05:48:50.018Z,100436
2018-05-27T05:49:54.878Z,100439
2018-05-27T05:50:59.739Z,100427
2018-05-27T05:52:04.569Z,100433
2018-05-27T05:53:09.447Z,100430
2018-05-27T05:54:14.630Z,100430
2018-05-27T05:55:20.351Z,100424
2018-05-27T05:56:25.227Z,100433
2018-05-27T05:57:30.911Z,100427
2018-05-27T05:58:36.082Z,100436
2018-05-27T05:59:40.971Z,100436
2018-05-27T06:00:46.622Z,100430
2018-05-27T06:01:52.073Z,100433
2018-05-27T06:02:57.217Z,100436
2018-05-27T06:04:01.782Z,100439
2018-05-27T06:05:07.217Z,100439
2018-05-27T06:06:12.385Z,100450
2018-05-27T06:07:18.101Z,100439
2018-05-27T06:08:23.532Z,100447
2018-05-27T06:09:29.367Z,100448
2018-05-27T06:10:34.804Z,100439
2018-05-27T06:11:39.971Z,100439
2018-05-27T06:12:44.984Z,100447
2018-05-27T06:13:50.144Z,100447
2018-05-27T06:14:54.730Z,100447
2018-05-27T06:16:00.260Z,100439
2018-05-27T06:17:05.425Z,100450
2018-05-27T06:18:10.300Z,100453
2018-05-27T06:19:16.134Z,100459
2018-05-27T06:20:21.001Z,100453
2018-05-27T06:21:26.180Z,100465
2018-05-27T06:22:31.047Z,100459
2018-05-27T06:23:36.209Z,100462
2018-05-27T06:24:41.344Z,100453
2018-05-27T06:25:46.917Z,100459
2018-05-27T06:26:52.514Z,100462
2018-05-27T06:27:58.473Z,100448
2018-05-27T06:29:03.626Z,100456
2018-05-27T06:30:08.797Z,100456
2018-05-27T06:31:14.193Z,100453
2018-05-27T06:32:19.071Z,100445
2018-05-27T06:33:23.924Z,100447
2018-05-27T06:34:30.387Z,100445
2018-05-27T06:35:35.251Z,100453
2018-05-27T06:36:41.082Z,100447
2018-05-27T06:37:45.962Z,100453
2018-05-27T06:38:51.419Z,100448
2018-05-27T06:39:56.687Z,100448
2018-05-27T06:41:01.845Z,100445
2018-05-27T06:42:07.276Z,100445
2018-05-27T06:43:12.802Z,100442
2018-05-27T06:44:17.960Z,100445
2018-05-27T06:45:23.140Z,100442
2018-05-27T06:46:43.569Z,100436
2018-05-27T06:47:48.714Z,100433
2018-05-27T06:48:54.118Z,100439
2018-05-27T06:49:58.709Z,100427
2018-05-27T06:51:03.327Z,100439
2018-05-27T06:52:09.012Z,100430
2018-05-27T06:53:14.174Z,100445
2018-05-27T06:54:19.337Z,100442
2018-05-27T06:55:24.170Z,100445
2018-05-27T06:56:29.041Z,100439
2018-05-27T06:57:34.656Z,100445
2018-05-27T06:58:39.810Z,100456
2018-05-27T06:59:44.992Z,100445
2018-05-27T07:00:50.776Z,100442
2018-05-27T07:01:55.937Z,100436
2018-05-27T07:03:01.102Z,100442
2018-05-27T07:04:05.863Z,100433
2018-05-27T07:05:11.033Z,100439
2018-05-27T07:06:16.472Z,100442
2018-05-27T07:07:22.153Z,100439
2018-05-27T07:08:27.584Z,100433
2018-05-27T07:09:33.230Z,100433
2018-05-27T07:10:38.106Z,100436
2018-05-27T07:11:43.654Z,100439
2018-05-27T07:12:49.158Z,100448
2018-05-27T07:13:54.594Z,100442
2018-05-27T07:15:00.028Z,100436
2018-05-27T07:16:05.609Z,100445
2018-05-27T07:17:10.892Z,100430
2018-05-27T07:18:16.372Z,100442
2018-05-27T07:19:22.053Z,100442
2018-05-27T07:20:27.225Z,100442
2018-05-27T07:21:31.804Z,100442
2018-05-27T07:22:36.967Z,100445
2018-05-27T07:23:42.405Z,100442
2018-05-27T07:24:47.524Z,100430
2018-05-27T07:25:52.699Z,100448
2018-05-27T07:26:57.861Z,100442
2018-05-27T07:28:02.692Z,100433
2018-05-27T07:29:07.581Z,100439
2018-05-27T07:30:12.472Z,100442
2018-05-27T07:31:17.868Z,100442
2018-05-27T07:32:22.467Z,100436
2018-05-27T07:33:28.386Z,100433
2018-05-27T07:34:33.671Z,100433
2018-05-27T07:35:39.085Z,100430
2018-05-27T07:36:44.883Z,100427
2018-05-27T07:37:50.313Z,100430
2018-05-27T07:38:55.745Z,100433
2018-05-27T07:40:01.148Z,100422
2018-05-27T07:41:06.028Z,100425
2018-05-27T07:42:11.183Z,100419
2018-05-27T07:43:16.792Z,100425
2018-05-27T07:44:21.937Z,100425
2018-05-27T07:45:41.574Z,100416
2018-05-27T07:46:46.720Z,100433
2018-05-27T07:47:52.152Z,100425
2018-05-27T07:48:58.057Z,100419
2018-05-27T07:50:03.212Z,100422
2018-05-27T07:51:08.384Z,100427
2018-05-27T07:52:13.498Z,100422
2018-05-27T07:53:18.370Z,100430
2018-05-27T07:54:23.526Z,100428
2018-05-27T07:55:43.969Z,100416
2018-05-27T07:56:49.398Z,100430
2018-05-27T07:57:55.198Z,100419
2018-05-27T07:59:00.670Z,100416
2018-05-27T08:00:05.259Z,100419
2018-05-27T08:01:10.758Z,100419
2018-05-27T08:02:16.192Z,100410
2018-05-27T08:03:21.076Z,100422
2018-05-27T08:04:26.087Z,100413
2018-05-27T08:05:31.273Z,100416
2018-05-27T08:06:36.121Z,100422
2018-05-27T08:07:41.561Z,100416
2018-05-27T08:08:46.141Z,100419
2018-05-27T08:09:51.942Z,100404
2018-05-27T08:10:57.373Z,100399
2018-05-27T08:12:02.257Z,100410
2018-05-27T08:13:07.997Z,100413
2018-05-27T08:14:13.446Z,100410
2018-05-27T08:15:18.890Z,100416
2018-05-27T08:16:24.601Z,100413
2018-05-27T08:17:29.482Z,100410
2018-05-27T08:18:35.087Z,100405
2018-05-27T08:19:40.602Z,100407
2018-05-27T08:20:45.595Z,100410
2018-05-27T08:21:50.260Z,100410
2018-05-27T08:22:55.145Z,100410
2018-05-27T08:24:00.012Z,100410
2018-05-27T08:25:05.224Z,100408
2018-05-27T08:26:10.629Z,100413
2018-05-27T08:27:15.805Z,100405
2018-05-27T08:28:20.976Z,100408
2018-05-27T08:29:25.860Z,100411
2018-05-27T08:30:31.094Z,100399
2018-05-27T08:31:36.526Z,100402
2018-05-27T08:32:41.957Z,100402
2018-05-27T08:33:47.359Z,100396
2018-05-27T08:34:52.523Z,100408
2018-05-27T08:35:57.972Z,100408
2018-05-27T08:37:03.888Z,100393
2018-05-27T08:38:09.327Z,100399
2018-05-27T08:39:14.758Z,100396
2018-05-27T08:40:19.888Z,100399
2018-05-27T08:41:24.771Z,100402
2018-05-27T08:42:30.458Z,100402
2018-05-27T08:43:34.901Z,100396
2018-05-27T08:44:40.339Z,100405
2018-05-27T08:45:45.446Z,100405
2018-05-27T08:46:50.033Z,100402
2018-05-27T08:47:55.217Z,100411
2018-05-27T08:49:00.497Z,100405
2018-05-27T08:50:05.468Z,100402
2018-05-27T08:51:10.618Z,100405
2018-05-27T08:52:16.485Z,100396
2018-05-27T08:53:21.668Z,100396
2018-05-27T08:54:26.955Z,100390
2018-05-27T08:55:32.100Z,100408
2018-05-27T08:56:37.255Z,100405
2018-05-27T08:57:42.814Z,100405
2018-05-27T08:58:47.970Z,100399
2018-05-27T08:59:53.126Z,100405
2018-05-27T09:00:58.524Z,100405
2018-05-27T09:02:03.973Z,100399
2018-05-27T09:03:08.590Z,100399
2018-05-27T09:04:14.272Z,100402
2018-05-27T09:05:19.432Z,100399
2018-05-27T09:07:44.933Z,100402
2018-05-27T09:08:50.176Z,100399
2018-05-27T09:09:55.790Z,100394
2018-05-27T09:11:00.660Z,100382
2018-05-27T09:12:05.275Z,100399
2018-05-27T09:13:10.415Z,100391
2018-05-27T09:14:15.573Z,100385
2018-05-27T09:15:20.579Z,100388
2018-05-27T09:16:26.555Z,100388
2018-05-27T09:17:31.741Z,100399
2018-05-27T09:18:37.287Z,100394
2018-05-27T09:19:42.159Z,100399
2018-05-27T09:20:47.053Z,100397
2018-05-27T09:21:53.057Z,100399
2018-05-27T09:22:57.925Z,100400
2018-05-27T09:24:03.080Z,100400
2018-05-27T09:25:08.613Z,100400
2018-05-27T09:26:13.267Z,100400
2018-05-27T09:27:18.714Z,100405
2018-05-27T09:28:24.403Z,100405
2018-05-27T09:29:29.277Z,100402
2018-05-27T09:30:34.565Z,100408
2018-05-27T09:31:39.730Z,100403
2018-05-27T09:32:44.609Z,100405
2018-05-27T09:33:49.184Z,100391
2018-05-27T09:34:54.353Z,100391
2018-05-27T09:35:59.801Z,100397
2018-05-27T09:37:05.225Z,100403
2018-05-27T09:38:10.090Z,100403
2018-05-27T09:39:15.343Z,100394
2018-05-27T09:40:21.016Z,100397
2018-05-27T09:41:25.881Z,100397
2018-05-27T09:42:31.597Z,100397
2018-05-27T09:43:36.768Z,100391
2018-05-27T09:44:41.924Z,100397
2018-05-27T09:45:47.372Z,100394
2018-05-27T09:46:52.527Z,100388
2018-05-27T09:47:57.682Z,100388
2018-05-27T09:49:03.084Z,100379
2018-05-27T09:50:08.529Z,100391
2018-05-27T09:51:13.478Z,100379
2018-05-27T09:52:19.293Z,100385
2018-05-27T09:53:24.479Z,100382
2018-05-27T09:54:29.749Z,100376
2018-05-27T09:55:34.630Z,100382
2018-05-27T09:56:39.786Z,100376
2018-05-27T09:57:45.394Z,100365
2018-05-27T09:58:50.365Z,100382
2018-05-27T09:59:55.930Z,100376
2018-05-27T10:01:01.600Z,100385
2018-05-27T10:02:06.777Z,100391
2018-05-27T10:03:11.397Z,100385
2018-05-27T10:04:16.900Z,100385
2018-05-27T10:05:22.065Z,100376
2018-05-27T10:06:28.063Z,100391
2018-05-27T10:07:33.254Z,100382
2018-05-27T10:08:38.159Z,100385
2018-05-27T10:09:43.942Z,100388
2018-05-27T10:10:49.094Z,100382
2018-05-27T10:11:54.252Z,100394
2018-05-27T10:13:00.042Z,100382
2018-05-27T10:14:05.181Z,100379
2018-05-27T10:15:10.038Z,100388
2018-05-27T10:16:15.437Z,100391
2018-05-27T10:17:20.852Z,100391
2018-05-27T10:18:26.735Z,100391
2018-05-27T10:19:31.908Z,100385
2018-05-27T10:20:37.354Z,100397
2018-05-27T10:21:42.764Z,100385
2018-05-27T10:22:47.339Z,100394
2018-05-27T10:23:52.232Z,100382
2018-05-27T10:24:58.168Z,100382
2018-05-27T10:26:03.691Z,100376
2018-05-27T10:27:09.703Z,100388
2018-05-27T10:28:15.257Z,100374
2018-05-27T10:29:20.410Z,100379
2018-05-27T10:30:40.852Z,100374
2018-05-27T10:31:45.731Z,100368
2018-05-27T10:32:51.134Z,100377
2018-05-27T10:33:56.742Z,100371
2018-05-27T10:35:01.611Z,100374
2018-05-27T10:36:06.478Z,100374
2018-05-27T10:37:12.162Z,100374
2018-05-27T10:38:17.323Z,100377
2018-05-27T10:39:22.757Z,100368
2018-05-27T10:40:28.758Z,100377
2018-05-27T10:41:33.916Z,100385
2018-05-27T10:42:39.389Z,100382
2018-05-27T10:43:44.550Z,100368
2018-05-27T10:44:49.140Z,100368
2018-05-27T10:45:54.279Z,100377
2018-05-27T10:46:58.885Z,100371
2018-05-27T10:48:03.493Z,100371
2018-05-27T10:49:09.182Z,100371
2018-05-27T10:50:14.331Z,100368
2018-05-27T10:51:19.475Z,100365
2018-05-27T10:52:24.596Z,100359
2018-05-27T10:53:30.049Z,100356
2018-05-27T10:54:35.449Z,100359
2018-05-27T10:55:40.603Z,100365
2018-05-27T10:56:46.036Z,100365
2018-05-27T10:57:51.442Z,100371
2018-05-27T10:58:56.586Z,100353
2018-05-27T11:00:01.999Z,100350
2018-05-27T11:01:06.574Z,100350
2018-05-27T11:02:12.008Z,100342
2018-05-27T11:03:17.168Z,100350
2018-05-27T11:04:22.678Z,100350
2018-05-27T11:05:27.563Z,100347
2018-05-27T11:06:32.848Z,100342
2018-05-27T11:07:38.288Z,100344
2018-05-27T11:08:43.448Z,100345
2018-05-27T11:09:48.571Z,100325
2018-05-27T11:10:54.005Z,100339
2018-05-27T11:11:59.440Z,100331
2018-05-27T11:13:04.992Z,100339
2018-05-27T11:14:09.871Z,100334
2018-05-27T11:15:14.455Z,100336
2018-05-27T11:16:20.137Z,100334
2018-05-27T11:17:25.300Z,100325
2018-05-27T11:18:31.087Z,100331
2018-05-27T11:19:36.527Z,100325
2018-05-27T11:20:42.096Z,100331
2018-05-27T11:21:47.867Z,100319
2018-05-27T11:22:52.452Z,100322
2018-05-27T11:23:57.616Z,100316
2018-05-27T11:25:03.045Z,100322
2018-05-27T11:26:07.924Z,100307
2018-05-27T11:27:13.080Z,100313
2018-05-27T11:28:18.585Z,100302
2018-05-27T11:29:23.448Z,100296
2018-05-27T11:30:29.389Z,100299
2018-05-27T11:31:34.265Z,100307
2018-05-27T11:32:39.694Z,100299
2018-05-27T11:33:45.375Z,100296
2018-05-27T11:34:50.855Z,100296
2018-05-27T11:35:56.011Z,100302
2018-05-27T11:37:01.779Z,100299
2018-05-27T11:38:06.388Z,100305
2018-05-27T11:39:11.535Z,100308
2018-05-27T11:40:17.372Z,100296
2018-05-27T11:41:22.528Z,100302
2018-05-27T11:42:27.990Z,100296
2018-05-27T11:43:33.253Z,100296
2018-05-27T11:44:38.689Z,100293
2018-05-27T11:45:44.494Z,100302
2018-05-27T11:46:49.657Z,100293
2018-05-27T11:47:54.554Z,100293
2018-05-27T11:49:00.053Z,100290
2018-05-27T11:50:04.929Z,100285
2018-05-27T11:51:09.803Z,100302
2018-05-27T11:52:15.493Z,100290
2018-05-27T11:53:20.084Z,100293
2018-05-27T11:54:25.577Z,100285
2018-05-27T11:55:31.031Z,100293
2018-05-27T11:56:36.471Z,100296
2018-05-27T11:57:42.158Z,100296
2018-05-27T11:58:47.323Z,100299
2018-05-27T11:59:52.746Z,100290
2018-05-27T12:00:58.442Z,100293
2018-05-27T12:02:03.440Z,100293
2018-05-27T12:03:08.778Z,100290
2018-05-27T12:04:14.142Z,100276
2018-05-27T12:05:19.498Z,100288
2018-05-27T12:07:45.005Z,100282
2018-05-27T12:08:50.449Z,100279
2018-05-27T12:09:55.674Z,100274
2018-05-27T12:11:01.463Z,100282
2018-05-27T12:12:06.073Z,100282
2018-05-27T12:13:11.310Z,100276
2018-05-27T12:14:15.937Z,100274
2018-05-27T12:15:21.376Z,100274
2018-05-27T12:16:26.601Z,100276
2018-05-27T12:17:32.195Z,100268
2018-05-27T12:18:38.128Z,100274
2018-05-27T12:19:43.280Z,100274
2018-05-27T12:20:48.737Z,100259
2018-05-27T12:21:54.459Z,100274
2018-05-27T12:22:59.890Z,100259
2018-05-27T12:24:05.059Z,100262
2018-05-27T12:25:10.217Z,100256
2018-05-27T12:26:15.375Z,100259
2018-05-27T12:27:20.531Z,100247
2018-05-27T12:28:40.593Z,100250
2018-05-27T12:29:46.348Z,100250
2018-05-27T12:30:52.511Z,100247
2018-05-27T12:31:57.945Z,100244
2018-05-27T12:33:03.814Z,100244
2018-05-27T12:34:08.671Z,100250
2018-05-27T12:35:14.105Z,100241
2018-05-27T12:36:19.287Z,100247
2018-05-27T12:37:24.840Z,100247
2018-05-27T12:38:30.297Z,100241
2018-05-27T12:39:35.712Z,100247
2018-05-27T12:40:40.879Z,100244
2018-05-27T12:41:46.041Z,100241
2018-05-27T12:42:51.585Z,100244
2018-05-27T12:43:56.955Z,100238
2018-05-27T12:45:01.843Z,100247
2018-05-27T12:46:07.186Z,100244
2018-05-27T12:47:12.357Z,100244
2018-05-27T12:48:17.794Z,100244
2018-05-27T12:49:23.483Z,100238
2018-05-27T12:50:28.394Z,100233
2018-05-27T12:51:34.182Z,100227
2018-05-27T12:52:39.338Z,100236
2018-05-27T12:53:43.983Z,100244
2018-05-27T12:54:49.416Z,100247
2018-05-27T12:55:54.576Z,100235
2018-05-27T12:56:59.567Z,100244
2018-05-27T12:58:05.277Z,100233
2018-05-27T12:59:10.148Z,100227
2018-05-27T13:00:15.300Z,100230
2018-05-27T13:01:20.857Z,100224
2018-05-27T13:02:25.751Z,100233
2018-05-27T13:03:31.583Z,100230
2018-05-27T13:04:37.026Z,100233
2018-05-27T13:05:41.888Z,100227
2018-05-27T13:06:47.724Z,100221
2018-05-27T13:07:52.888Z,100221
2018-05-27T13:08:58.324Z,100227
2018-05-27T13:10:03.838Z,100218
2018-05-27T13:11:08.704Z,100230
2018-05-27T13:12:13.310Z,100212
2018-05-27T13:13:18.428Z,100224
2018-05-27T13:14:23.626Z,100206
2018-05-27T13:15:28.910Z,100221
2018-05-27T13:16:34.160Z,100215
2018-05-27T13:17:39.943Z,100200
2018-05-27T13:18:44.823Z,100212
2018-05-27T13:19:49.406Z,100206
2018-05-27T13:20:54.313Z,100200
2018-05-27T13:21:59.728Z,100209
2018-05-27T13:23:04.898Z,100200
2018-05-27T13:24:10.042Z,100203
2018-05-27T13:25:15.744Z,100201
2018-05-27T13:26:21.240Z,100206
2018-05-27T13:27:27.247Z,100203
2018-05-27T13:28:32.708Z,100198
2018-05-27T13:29:38.152Z,100200
2018-05-27T13:30:43.566Z,100192
2018-05-27T13:31:48.732Z,100189
2018-05-27T13:32:53.614Z,100192
2018-05-27T13:33:58.759Z,100186
2018-05-27T13:35:04.231Z,100186
2018-05-27T13:36:09.100Z,100183
2018-05-27T13:37:14.378Z,100177
2018-05-27T13:38:19.253Z,100174
2018-05-27T13:40:44.833Z,100180